Terminal Aerodrome Forecast
Issued by NWS

Home | Current Version | Previous Version | Text Only | Print | Product List | Glossary On
Versions: 1 2 3 4 5 6 7 8 9 10 11 12 13
000
FTUS42 KTBW 230522
TAFLAL
TAF
KLAL 230522Z 2306/2406 14007KT P6SM SCT025 BKN200
     FM231400 16010KT P6SM VCSH SCT025 BKN080
     FM231700 17010KT P6SM VCTS SCT025CB BKN050 OVC100
     FM232100 17009KT P6SM VCTS SCT030CB OVC070
     FM240000 18006KT P6SM SHRA SCT030 OVC050
      AMD NOT SKED 2306/2311=

USA.gov is the U.S. government's official web portal to all federal, state and local government web resources and services.